sensor_id;sensor_type;location;lat;lon;timestamp;P1;durP1;ratioP1;P2;durP2;ratioP2
42420;SDS011;28063;48.140;11.588;2022-09-03T00:01:15;2.40;;;1.40;;
42420;SDS011;28063;48.140;11.588;2022-09-03T00:07:48;2.15;;;1.27;;
42420;SDS011;28063;48.140;11.588;2022-09-03T00:11:42;3.53;;;1.08;;
42420;SDS011;28063;48.140;11.588;2022-09-03T00:17:53;2.55;;;1.40;;
42420;SDS011;28063;48.140;11.588;2022-09-03T00:21:08;1.55;;;1.35;;
42420;SDS011;28063;48.140;11.588;2022-09-03T00:24:53;2.50;;;1.15;;
42420;SDS011;28063;48.140;11.588;2022-09-03T00:27:47;2.80;;;1.58;;
42420;SDS011;28063;48.140;11.588;2022-09-03T00:37:33;1.85;;;1.30;;
42420;SDS011;28063;48.140;11.588;2022-09-03T00:40:17;2.88;;;1.20;;
42420;SDS011;28063;48.140;11.588;2022-09-03T03:37:53;1.65;;;1.48;;
42420;SDS011;28063;48.140;11.588;2022-09-03T03:40:41;2.83;;;1.90;;
42420;SDS011;28063;48.140;11.588;2022-09-03T03:43:27;2.85;;;1.70;;
42420;SDS011;28063;48.140;11.588;2022-09-03T03:46:02;1.80;;;1.60;;
42420;SDS011;28063;48.140;11.588;2022-09-03T04:49:48;2.83;;;2.00;;
42420;SDS011;28063;48.140;11.588;2022-09-03T04:52:14;1.70;;;1.48;;
42420;SDS011;28063;48.140;11.588;2022-09-03T04:54:40;2.95;;;1.80;;
42420;SDS011;28063;48.140;11.588;2022-09-03T04:57:05;3.70;;;1.65;;
42420;SDS011;28063;48.140;11.588;2022-09-03T04:59:31;2.85;;;1.77;;
42420;SDS011;28063;48.140;11.588;2022-09-03T05:01:56;4.78;;;1.98;;
42420;SDS011;28063;48.140;11.588;2022-09-03T05:04:22;2.42;;;1.60;;
42420;SDS011;28063;48.140;11.588;2022-09-03T05:06:48;3.17;;;1.60;;
42420;SDS011;28063;48.140;11.588;2022-09-03T05:09:13;1.80;;;1.70;;
42420;SDS011;28063;48.140;11.588;2022-09-03T05:11:39;2.50;;;1.90;;
42420;SDS011;28063;48.140;11.588;2022-09-03T05:14:04;3.05;;;1.80;;
42420;SDS011;28063;48.140;11.588;2022-09-03T05:16:30;1.98;;;1.75;;
42420;SDS011;28063;48.140;11.588;2022-09-03T05:18:57;5.80;;;1.90;;
42420;SDS011;28063;48.140;11.588;2022-09-03T05:21:23;2.58;;;2.33;;
42420;SDS011;28063;48.140;11.588;2022-09-03T05:23:50;3.05;;;1.88;;
42420;SDS011;28063;48.140;11.588;2022-09-03T05:26:17;1.95;;;1.38;;
42420;SDS011;28063;48.140;11.588;2022-09-03T05:28:45;3.05;;;2.17;;
42420;SDS011;28063;48.140;11.588;2022-09-03T05:31:12;2.55;;;1.92;;
42420;SDS011;28063;48.140;11.588;2022-09-03T05:33:41;2.80;;;1.85;;
42420;SDS011;28063;48.140;11.588;2022-09-03T05:36:11;1.95;;;1.60;;
42420;SDS011;28063;48.140;11.588;2022-09-03T05:38:42;1.67;;;1.50;;
42420;SDS011;28063;48.140;11.588;2022-09-03T05:41:08;1.52;;;1.42;;
42420;SDS011;28063;48.140;11.588;2022-09-03T05:43:36;2.92;;;1.90;;
42420;SDS011;28063;48.140;11.588;2022-09-03T05:46:05;3.28;;;1.98;;
42420;SDS011;28063;48.140;11.588;2022-09-03T05:48:33;4.32;;;2.10;;
42420;SDS011;28063;48.140;11.588;2022-09-03T05:51:01;3.03;;;1.83;;
42420;SDS011;28063;48.140;11.588;2022-09-03T05:53:32;1.73;;;1.63;;
42420;SDS011;28063;48.140;11.588;2022-09-03T05:56:00;1.83;;;1.45;;
42420;SDS011;28063;48.140;11.588;2022-09-03T05:58:30;3.05;;;1.85;;
42420;SDS011;28063;48.140;11.588;2022-09-03T06:00:57;2.80;;;1.80;;
42420;SDS011;28063;48.140;11.588;2022-09-03T06:03:23;2.53;;;1.80;;
42420;SDS011;28063;48.140;11.588;2022-09-03T06:05:53;3.65;;;2.40;;
42420;SDS011;28063;48.140;11.588;2022-09-03T06:08:19;3.65;;;1.98;;
42420;SDS011;28063;48.140;11.588;2022-09-03T06:10:46;3.05;;;1.85;;
42420;SDS011;28063;48.140;11.588;2022-09-03T06:13:12;2.40;;;1.63;;
42420;SDS011;28063;48.140;11.588;2022-09-03T06:15:38;3.20;;;1.63;;
42420;SDS011;28063;48.140;11.588;2022-09-03T06:18:04;3.88;;;1.95;;
42420;SDS011;28063;48.140;11.588;2022-09-03T06:20:30;5.55;;;1.90;;
42420;SDS011;28063;48.140;11.588;2022-09-03T06:22:57;3.58;;;1.60;;
42420;SDS011;28063;48.140;11.588;2022-09-03T06:25:22;2.53;;;1.90;;
42420;SDS011;28063;48.140;11.588;2022-09-03T06:27:48;1.63;;;1.52;;
42420;SDS011;28063;48.140;11.588;2022-09-03T06:30:14;1.70;;;1.60;;
42420;SDS011;28063;48.140;11.588;2022-09-03T06:32:47;1.60;;;1.27;;
42420;SDS011;28063;48.140;11.588;2022-09-03T06:35:17;5.15;;;1.70;;
42420;SDS011;28063;48.140;11.588;2022-09-03T06:37:43;2.25;;;1.38;;
42420;SDS011;28063;48.140;11.588;2022-09-03T06:40:10;2.70;;;1.50;;
42420;SDS011;28063;48.140;11.588;2022-09-03T06:42:44;2.65;;;1.70;;
42420;SDS011;28063;48.140;11.588;2022-09-03T06:45:21;4.90;;;1.90;;
42420;SDS011;28063;48.140;11.588;2022-09-03T06:47:47;4.90;;;2.50;;
42420;SDS011;28063;48.140;11.588;2022-09-03T06:50:13;1.75;;;1.65;;
42420;SDS011;28063;48.140;11.588;2022-09-03T06:52:38;1.40;;;1.23;;
42420;SDS011;28063;48.140;11.588;2022-09-03T06:55:04;1.17;;;1.08;;
42420;SDS011;28063;48.140;11.588;2022-09-03T06:57:30;1.30;;;1.20;;
42420;SDS011;28063;48.140;11.588;2022-09-03T06:59:56;1.42;;;1.15;;
42420;SDS011;28063;48.140;11.588;2022-09-03T07:02:22;1.90;;;1.48;;
42420;SDS011;28063;48.140;11.588;2022-09-03T07:04:48;1.88;;;1.45;;
42420;SDS011;28063;48.140;11.588;2022-09-03T07:07:13;1.85;;;1.58;;
42420;SDS011;28063;48.140;11.588;2022-09-03T07:09:40;1.50;;;1.40;;
42420;SDS011;28063;48.140;11.588;2022-09-03T07:12:06;3.65;;;2.05;;
42420;SDS011;28063;48.140;11.588;2022-09-03T07:14:31;2.85;;;1.60;;
42420;SDS011;28063;48.140;11.588;2022-09-03T07:16:57;1.92;;;1.77;;
42420;SDS011;28063;48.140;11.588;2022-09-03T07:19:23;1.90;;;1.50;;
42420;SDS011;28063;48.140;11.588;2022-09-03T07:21:49;2.15;;;1.60;;
42420;SDS011;28063;48.140;11.588;2022-09-03T07:24:14;1.65;;;1.55;;
42420;SDS011;28063;48.140;11.588;2022-09-03T07:26:41;3.72;;;1.70;;
42420;SDS011;28063;48.140;11.588;2022-09-03T07:29:13;1.65;;;1.55;;
42420;SDS011;28063;48.140;11.588;2022-09-03T07:31:41;2.78;;;1.90;;
42420;SDS011;28063;48.140;11.588;2022-09-03T07:34:08;2.13;;;1.92;;
42420;SDS011;28063;48.140;11.588;2022-09-03T07:36:45;2.33;;;1.80;;
42420;SDS011;28063;48.140;11.588;2022-09-03T07:39:13;5.55;;;2.13;;
42420;SDS011;28063;48.140;11.588;2022-09-03T07:41:40;1.83;;;1.65;;
42420;SDS011;28063;48.140;11.588;2022-09-03T07:44:09;2.30;;;2.10;;
42420;SDS011;28063;48.140;11.588;2022-09-03T07:46:37;2.10;;;1.88;;
42420;SDS011;28063;48.140;11.588;2022-09-03T07:49:04;1.67;;;1.58;;
42420;SDS011;28063;48.140;11.588;2022-09-03T07:51:32;3.40;;;1.35;;
42420;SDS011;28063;48.140;11.588;2022-09-03T07:54:00;2.15;;;1.95;;
42420;SDS011;28063;48.140;11.588;2022-09-03T07:56:28;3.13;;;1.90;;
42420;SDS011;28063;48.140;11.588;2022-09-03T07:58:56;1.70;;;1.60;;
42420;SDS011;28063;48.140;11.588;2022-09-03T08:01:23;2.47;;;1.60;;
42420;SDS011;28063;48.140;11.588;2022-09-03T08:03:52;2.75;;;1.70;;
42420;SDS011;28063;48.140;11.588;2022-09-03T08:06:20;4.32;;;1.70;;
42420;SDS011;28063;48.140;11.588;2022-09-03T08:08:47;2.28;;;1.90;;
42420;SDS011;28063;48.140;11.588;2022-09-03T08:11:18;1.50;;;1.40;;
42420;SDS011;28063;48.140;11.588;2022-09-03T08:13:56;2.92;;;1.77;;
42420;SDS011;28063;48.140;11.588;2022-09-03T08:16:30;3.17;;;1.70;;
42420;SDS011;28063;48.140;11.588;2022-09-03T08:18:57;1.77;;;1.67;;
42420;SDS011;28063;48.140;11.588;2022-09-03T08:21:24;1.73;;;1.50;;
42420;SDS011;28063;48.140;11.588;2022-09-03T08:23:51;1.67;;;1.58;;
42420;SDS011;28063;48.140;11.588;2022-09-03T08:26:35;1.73;;;1.63;;
42420;SDS011;28063;48.140;11.588;2022-09-03T08:29:02;3.53;;;2.35;;
42420;SDS011;28063;48.140;11.588;2022-09-03T08:31:29;1.73;;;1.63;;
42420;SDS011;28063;48.140;11.588;2022-09-03T08:33:56;1.92;;;1.52;;
42420;SDS011;28063;48.140;11.588;2022-09-03T08:36:24;1.70;;;1.60;;
42420;SDS011;28063;48.140;11.588;2022-09-03T08:38:54;2.40;;;1.90;;
42420;SDS011;28063;48.140;11.588;2022-09-03T08:41:27;2.08;;;1.60;;
42420;SDS011;28063;48.140;11.588;2022-09-03T08:52:47;2.40;;;2.20;;
42420;SDS011;28063;48.140;11.588;2022-09-03T08:55:34;2.25;;;2.05;;
42420;SDS011;28063;48.140;11.588;2022-09-03T08:58:10;2.72;;;2.00;;
42420;SDS011;28063;48.140;11.588;2022-09-03T09:00:46;2.67;;;1.70;;
42420;SDS011;28063;48.140;11.588;2022-09-03T09:14:40;2.33;;;2.13;;
42420;SDS011;28063;48.140;11.588;2022-09-03T09:22:58;3.17;;;1.70;;
42420;SDS011;28063;48.140;11.588;2022-09-03T09:25:33;1.75;;;1.65;;
42420;SDS011;28063;48.140;11.588;2022-09-03T09:28:13;2.10;;;2.00;;
42420;SDS011;28063;48.140;11.588;2022-09-03T09:30:43;1.85;;;1.73;;
42420;SDS011;28063;48.140;11.588;2022-09-03T09:33:15;1.80;;;1.70;;
42420;SDS011;28063;48.140;11.588;2022-09-03T09:35:42;3.33;;;2.25;;
42420;SDS011;28063;48.140;11.588;2022-09-03T09:38:09;2.40;;;1.90;;
42420;SDS011;28063;48.140;11.588;2022-09-03T09:40:39;1.90;;;1.80;;
42420;SDS011;28063;48.140;11.588;2022-09-03T09:43:18;1.65;;;1.55;;
42420;SDS011;28063;48.140;11.588;2022-09-03T09:45:49;1.42;;;1.42;;
42420;SDS011;28063;48.140;11.588;2022-09-03T09:48:25;2.35;;;1.83;;
42420;SDS011;28063;48.140;11.588;2022-09-03T09:53:31;1.50;;;1.40;;
42420;SDS011;28063;48.140;11.588;2022-09-03T09:55:57;2.22;;;1.60;;
42420;SDS011;28063;48.140;11.588;2022-09-03T09:58:24;1.73;;;1.65;;
42420;SDS011;28063;48.140;11.588;2022-09-03T10:04:07;1.98;;;1.27;;
42420;SDS011;28063;48.140;11.588;2022-09-03T10:06:52;1.92;;;1.45;;
42420;SDS011;28063;48.140;11.588;2022-09-03T10:09:25;1.75;;;1.65;;
42420;SDS011;28063;48.140;11.588;2022-09-03T10:20:03;1.50;;;1.40;;
42420;SDS011;28063;48.140;11.588;2022-09-03T10:28:25;1.85;;;1.63;;
42420;SDS011;28063;48.140;11.588;2022-09-03T10:33:26;1.67;;;1.33;;
42420;SDS011;28063;48.140;11.588;2022-09-03T10:36:44;1.48;;;1.38;;
42420;SDS011;28063;48.140;11.588;2022-09-03T10:49:38;1.48;;;1.38;;
42420;SDS011;28063;48.140;11.588;2022-09-03T10:52:16;1.45;;;1.35;;
42420;SDS011;28063;48.140;11.588;2022-09-03T10:57:34;1.60;;;1.50;;
42420;SDS011;28063;48.140;11.588;2022-09-03T11:00:15;1.30;;;1.30;;
42420;SDS011;28063;48.140;11.588;2022-09-03T11:05:38;1.38;;;1.38;;
42420;SDS011;28063;48.140;11.588;2022-09-03T11:08:15;1.50;;;1.40;;
42420;SDS011;28063;48.140;11.588;2022-09-03T11:10:48;1.58;;;1.48;;
42420;SDS011;28063;48.140;11.588;2022-09-03T11:13:23;2.83;;;1.30;;
42420;SDS011;28063;48.140;11.588;2022-09-03T11:16:12;1.42;;;1.42;;
42420;SDS011;28063;48.140;11.588;2022-09-03T11:18:54;1.35;;;1.35;;
42420;SDS011;28063;48.140;11.588;2022-09-03T11:21:25;1.30;;;1.30;;
42420;SDS011;28063;48.140;11.588;2022-09-03T11:24:16;1.50;;;1.42;;
42420;SDS011;28063;48.140;11.588;2022-09-03T11:26:43;2.00;;;1.25;;
42420;SDS011;28063;48.140;11.588;2022-09-03T11:29:15;1.58;;;1.42;;
42420;SDS011;28063;48.140;11.588;2022-09-03T11:36:50;1.20;;;1.10;;
42420;SDS011;28063;48.140;11.588;2022-09-03T11:39:19;2.03;;;1.58;;
42420;SDS011;28063;48.140;11.588;2022-09-03T11:42:00;1.80;;;1.70;;
42420;SDS011;28063;48.140;11.588;2022-09-03T11:44:49;1.75;;;1.40;;
42420;SDS011;28063;48.140;11.588;2022-09-03T11:49:48;1.73;;;1.60;;
42420;SDS011;28063;48.140;11.588;2022-09-03T11:52:24;1.38;;;1.38;;
42420;SDS011;28063;48.140;11.588;2022-09-03T11:54:56;1.50;;;1.40;;
42420;SDS011;28063;48.140;11.588;2022-09-03T11:57:24;3.13;;;1.50;;
42420;SDS011;28063;48.140;11.588;2022-09-03T11:59:52;1.38;;;1.38;;
42420;SDS011;28063;48.140;11.588;2022-09-03T12:02:23;1.38;;;1.38;;
42420;SDS011;28063;48.140;11.588;2022-09-03T12:10:16;3.38;;;1.70;;
42420;SDS011;28063;48.140;11.588;2022-09-03T12:13:11;1.50;;;1.40;;
42420;SDS011;28063;48.140;11.588;2022-09-03T12:18:18;1.60;;;1.50;;
42420;SDS011;28063;48.140;11.588;2022-09-03T12:26:21;1.85;;;1.38;;
42420;SDS011;28063;48.140;11.588;2022-09-03T12:28:49;1.52;;;1.42;;
42420;SDS011;28063;48.140;11.588;2022-09-03T12:31:23;1.67;;;1.42;;
42420;SDS011;28063;48.140;11.588;2022-09-03T12:34:10;1.30;;;1.30;;
42420;SDS011;28063;48.140;11.588;2022-09-03T12:36:42;2.47;;;1.98;;
42420;SDS011;28063;48.140;11.588;2022-09-03T12:39:20;2.38;;;1.35;;
42420;SDS011;28063;48.140;11.588;2022-09-03T12:41:55;2.17;;;1.65;;
42420;SDS011;28063;48.140;11.588;2022-09-03T12:44:31;2.00;;;1.58;;
42420;SDS011;28063;48.140;11.588;2022-09-03T12:49:38;1.65;;;1.55;;
42420;SDS011;28063;48.140;11.588;2022-09-03T12:52:28;2.05;;;1.50;;
42420;SDS011;28063;48.140;11.588;2022-09-03T12:55:14;1.30;;;1.15;;
42420;SDS011;28063;48.140;11.588;2022-09-03T13:00:36;2.15;;;1.58;;
42420;SDS011;28063;48.140;11.588;2022-09-03T13:05:47;2.65;;;1.88;;
42420;SDS011;28063;48.140;11.588;2022-09-03T13:08:42;1.63;;;1.40;;
42420;SDS011;28063;48.140;11.588;2022-09-03T13:11:32;1.50;;;1.40;;
42420;SDS011;28063;48.140;11.588;2022-09-03T13:14:02;4.00;;;1.90;;
42420;SDS011;28063;48.140;11.588;2022-09-03T13:30:06;1.63;;;1.52;;
42420;SDS011;28063;48.140;11.588;2022-09-03T13:32:50;1.52;;;1.42;;
42420;SDS011;28063;48.140;11.588;2022-09-03T13:40:55;2.97;;;1.60;;
42420;SDS011;28063;48.140;11.588;2022-09-03T13:43:42;1.40;;;1.33;;
42420;SDS011;28063;48.140;11.588;2022-09-03T13:46:16;1.30;;;1.30;;
42420;SDS011;28063;48.140;11.588;2022-09-03T13:48:47;1.67;;;1.30;;
42420;SDS011;28063;48.140;11.588;2022-09-03T13:54:15;2.60;;;1.73;;
42420;SDS011;28063;48.140;11.588;2022-09-03T14:16:06;1.85;;;1.73;;
42420;SDS011;28063;48.140;11.588;2022-09-03T14:18:55;1.90;;;1.70;;
42420;SDS011;28063;48.140;11.588;2022-09-03T14:21:30;1.65;;;1.55;;
42420;SDS011;28063;48.140;11.588;2022-09-03T14:26:53;1.58;;;1.48;;
42420;SDS011;28063;48.140;11.588;2022-09-03T14:29:23;1.60;;;1.50;;
42420;SDS011;28063;48.140;11.588;2022-09-03T14:40:41;3.22;;;1.80;;
42420;SDS011;28063;48.140;11.588;2022-09-03T14:56:25;3.53;;;2.70;;
42420;SDS011;28063;48.140;11.588;2022-09-03T15:02:11;5.22;;;2.83;;
42420;SDS011;28063;48.140;11.588;2022-09-03T15:12:52;3.05;;;2.20;;
42420;SDS011;28063;48.140;11.588;2022-09-03T15:20:51;3.15;;;2.55;;
42420;SDS011;28063;48.140;11.588;2022-09-03T15:32:12;2.08;;;1.98;;
42420;SDS011;28063;48.140;11.588;2022-09-03T15:35:10;2.20;;;2.00;;
42420;SDS011;28063;48.140;11.588;2022-09-03T15:43:32;2.20;;;2.00;;
42420;SDS011;28063;48.140;11.588;2022-09-03T15:56:17;1.98;;;1.77;;
42420;SDS011;28063;48.140;11.588;2022-09-03T15:58:51;1.90;;;1.70;;
42420;SDS011;28063;48.140;11.588;2022-09-03T16:01:27;1.88;;;1.65;;
42420;SDS011;28063;48.140;11.588;2022-09-03T16:07:00;3.75;;;1.90;;
42420;SDS011;28063;48.140;11.588;2022-09-03T16:17:38;3.95;;;1.90;;
42420;SDS011;28063;48.140;11.588;2022-09-03T16:23:09;3.30;;;1.70;;
42420;SDS011;28063;48.140;11.588;2022-09-03T16:25:47;1.20;;;1.10;;
42420;SDS011;28063;48.140;11.588;2022-09-03T16:28:23;1.55;;;1.45;;
42420;SDS011;28063;48.140;11.588;2022-09-03T16:37:21;1.48;;;1.38;;
42420;SDS011;28063;48.140;11.588;2022-09-03T16:39:54;1.30;;;1.20;;
42420;SDS011;28063;48.140;11.588;2022-09-03T16:42:33;1.10;;;1.10;;
42420;SDS011;28063;48.140;11.588;2022-09-03T16:45:39;1.08;;;0.98;;
42420;SDS011;28063;48.140;11.588;2022-09-03T17:00:18;2.13;;;1.42;;
42420;SDS011;28063;48.140;11.588;2022-09-03T17:05:44;1.52;;;1.13;;
42420;SDS011;28063;48.140;11.588;2022-09-03T17:19:13;1.65;;;1.55;;
42420;SDS011;28063;48.140;11.588;2022-09-03T17:24:41;2.40;;;1.67;;
42420;SDS011;28063;48.140;11.588;2022-09-03T17:33:16;2.00;;;1.85;;
42420;SDS011;28063;48.140;11.588;2022-09-03T17:36:15;1.85;;;1.73;;
42420;SDS011;28063;48.140;11.588;2022-09-03T17:41:41;2.38;;;1.83;;
42420;SDS011;28063;48.140;11.588;2022-09-03T17:45:12;1.92;;;1.80;;
42420;SDS011;28063;48.140;11.588;2022-09-03T17:52:56;1.80;;;1.70;;
42420;SDS011;28063;48.140;11.588;2022-09-03T17:55:40;1.55;;;1.40;;
42420;SDS011;28063;48.140;11.588;2022-09-03T17:58:13;1.80;;;1.65;;
42420;SDS011;28063;48.140;11.588;2022-09-03T18:06:21;1.83;;;1.70;;
42420;SDS011;28063;48.140;11.588;2022-09-03T18:08:51;1.63;;;1.52;;
42420;SDS011;28063;48.140;11.588;2022-09-03T18:20:02;1.60;;;1.50;;
42420;SDS011;28063;48.140;11.588;2022-09-03T18:25:53;1.65;;;1.50;;
42420;SDS011;28063;48.140;11.588;2022-09-03T18:29:17;1.40;;;1.30;;
42420;SDS011;28063;48.140;11.588;2022-09-03T18:32:15;1.25;;;1.15;;
42420;SDS011;28063;48.140;11.588;2022-09-03T18:34:59;1.67;;;1.58;;
42420;SDS011;28063;48.140;11.588;2022-09-03T18:37:43;1.48;;;1.38;;
42420;SDS011;28063;48.140;11.588;2022-09-03T18:40:30;1.45;;;1.35;;
42420;SDS011;28063;48.140;11.588;2022-09-03T18:43:32;1.65;;;1.55;;
42420;SDS011;28063;48.140;11.588;2022-09-03T18:49:35;2.10;;;1.80;;
42420;SDS011;28063;48.140;11.588;2022-09-03T18:52:29;1.80;;;1.70;;
42420;SDS011;28063;48.140;11.588;2022-09-03T19:02:13;1.88;;;1.67;;
42420;SDS011;28063;48.140;11.588;2022-09-03T19:11:08;2.05;;;1.55;;
42420;SDS011;28063;48.140;11.588;2022-09-03T19:14:10;2.78;;;1.60;;
42420;SDS011;28063;48.140;11.588;2022-09-03T19:23:02;2.10;;;1.90;;
42420;SDS011;28063;48.140;11.588;2022-09-03T19:25:46;2.10;;;1.90;;
42420;SDS011;28063;48.140;11.588;2022-09-03T19:28:31;2.58;;;2.15;;
42420;SDS011;28063;48.140;11.588;2022-09-03T19:31:39;2.60;;;1.83;;
42420;SDS011;28063;48.140;11.588;2022-09-03T19:34:52;2.25;;;2.05;;
42420;SDS011;28063;48.140;11.588;2022-09-03T19:46:59;1.77;;;1.67;;
42420;SDS011;28063;48.140;11.588;2022-09-03T19:53:13;1.73;;;1.63;;
42420;SDS011;28063;48.140;11.588;2022-09-03T19:56:04;2.53;;;2.33;;
42420;SDS011;28063;48.140;11.588;2022-09-03T19:58:55;4.07;;;2.15;;
42420;SDS011;28063;48.140;11.588;2022-09-03T20:01:44;2.58;;;2.38;;
42420;SDS011;28063;48.140;11.588;2022-09-03T20:04:31;2.28;;;2.08;;
42420;SDS011;28063;48.140;11.588;2022-09-03T20:07:17;2.25;;;1.90;;
42420;SDS011;28063;48.140;11.588;2022-09-03T20:10:04;2.17;;;1.98;;
42420;SDS011;28063;48.140;11.588;2022-09-03T20:34:35;2.08;;;1.98;;
42420;SDS011;28063;48.140;11.588;2022-09-03T20:40:33;2.45;;;2.00;;
42420;SDS011;28063;48.140;11.588;2022-09-03T20:43:20;1.77;;;1.67;;
42420;SDS011;28063;48.140;11.588;2022-09-03T20:46:12;1.88;;;1.70;;
42420;SDS011;28063;48.140;11.588;2022-09-03T20:54:29;2.20;;;2.00;;
42420;SDS011;28063;48.140;11.588;2022-09-03T21:00:18;2.20;;;2.00;;
42420;SDS011;28063;48.140;11.588;2022-09-03T21:06:15;2.72;;;2.45;;
42420;SDS011;28063;48.140;11.588;2022-09-03T21:08:58;3.10;;;2.38;;
42420;SDS011;28063;48.140;11.588;2022-09-03T21:25:32;2.95;;;2.03;;
42420;SDS011;28063;48.140;11.588;2022-09-03T21:28:05;3.15;;;2.25;;
42420;SDS011;28063;48.140;11.588;2022-09-03T21:30:32;3.53;;;2.05;;
42420;SDS011;28063;48.140;11.588;2022-09-03T21:33:15;2.15;;;1.80;;
42420;SDS011;28063;48.140;11.588;2022-09-03T21:36:06;2.30;;;2.10;;
42420;SDS011;28063;48.140;11.588;2022-09-03T21:38:38;2.20;;;1.98;;
42420;SDS011;28063;48.140;11.588;2022-09-03T21:43:56;2.88;;;2.67;;
42420;SDS011;28063;48.140;11.588;2022-09-03T21:46:40;2.50;;;2.30;;
42420;SDS011;28063;48.140;11.588;2022-09-03T21:49:30;2.60;;;2.40;;
42420;SDS011;28063;48.140;11.588;2022-09-03T21:52:02;3.03;;;2.58;;
42420;SDS011;28063;48.140;11.588;2022-09-03T21:54:51;3.13;;;2.13;;
42420;SDS011;28063;48.140;11.588;2022-09-03T22:00:25;2.65;;;2.45;;
42420;SDS011;28063;48.140;11.588;2022-09-03T22:02:57;2.67;;;2.30;;
42420;SDS011;28063;48.140;11.588;2022-09-03T22:05:23;3.10;;;2.20;;
42420;SDS011;28063;48.140;11.588;2022-09-03T22:10:50;2.25;;;2.05;;
42420;SDS011;28063;48.140;11.588;2022-09-03T22:13:29;1.98;;;1.80;;
42420;SDS011;28063;48.140;11.588;2022-09-03T22:16:31;1.90;;;1.80;;
42420;SDS011;28063;48.140;11.588;2022-09-03T22:18:54;1.52;;;1.42;;
42420;SDS011;28063;48.140;11.588;2022-09-03T22:24:38;1.98;;;1.83;;
42420;SDS011;28063;48.140;11.588;2022-09-03T22:27:16;4.20;;;2.00;;
42420;SDS011;28063;48.140;11.588;2022-09-03T22:35:39;2.08;;;1.88;;
42420;SDS011;28063;48.140;11.588;2022-09-03T22:43:42;2.25;;;1.92;;
42420;SDS011;28063;48.140;11.588;2022-09-03T22:46:20;2.10;;;1.90;;
42420;SDS011;28063;48.140;11.588;2022-09-03T22:49:09;1.95;;;1.77;;
42420;SDS011;28063;48.140;11.588;2022-09-03T22:57:07;2.30;;;2.10;;
42420;SDS011;28063;48.140;11.588;2022-09-03T22:59:40;2.08;;;1.98;;
42420;SDS011;28063;48.140;11.588;2022-09-03T23:02:12;2.88;;;2.20;;
42420;SDS011;28063;48.140;11.588;2022-09-03T23:04:46;2.28;;;2.13;;
42420;SDS011;28063;48.140;11.588;2022-09-03T23:10:04;12.30;;;2.42;;
42420;SDS011;28063;48.140;11.588;2022-09-03T23:12:43;2.92;;;2.40;;
42420;SDS011;28063;48.140;11.588;2022-09-03T23:15:20;2.10;;;1.90;;
42420;SDS011;28063;48.140;11.588;2022-09-03T23:20:33;2.20;;;2.00;;
42420;SDS011;28063;48.140;11.588;2022-09-03T23:23:05;1.67;;;1.58;;
42420;SDS011;28063;48.140;11.588;2022-09-03T23:25:46;1.70;;;1.60;;
42420;SDS011;28063;48.140;11.588;2022-09-03T23:30:44;3.78;;;1.83;;
42420;SDS011;28063;48.140;11.588;2022-09-03T23:33:09;1.80;;;1.70;;
42420;SDS011;28063;48.140;11.588;2022-09-03T23:36:19;2.65;;;2.10;;
42420;SDS011;28063;48.140;11.588;2022-09-03T23:38:50;2.55;;;2.30;;
42420;SDS011;28063;48.140;11.588;2022-09-03T23:58:27;2.17;;;1.42;;
